sensor_id;sensor_type;location;lat;lon;timestamp;temperature;humidity
38860;DHT22;24609;48.316;16.174;2023-03-01T00:01:33;-3.30;99.90
38860;DHT22;24609;48.316;16.174;2023-03-01T00:04:00;-3.40;99.90
38860;DHT22;24609;48.316;16.174;2023-03-01T00:06:26;-3.40;99.90
38860;DHT22;24609;48.316;16.174;2023-03-01T00:08:52;-3.40;99.90
38860;DHT22;24609;48.316;16.174;2023-03-01T00:11:22;-3.40;99.90
38860;DHT22;24609;48.316;16.174;2023-03-01T00:13:50;-3.50;99.90
38860;DHT22;24609;48.316;16.174;2023-03-01T00:16:28;-3.50;99.90
38860;DHT22;24609;48.316;16.174;2023-03-01T00:18:55;-3.50;99.90
38860;DHT22;24609;48.316;16.174;2023-03-01T00:21:22;-3.60;99.90
38860;DHT22;24609;48.316;16.174;2023-03-01T00:23:49;-3.70;99.90
38860;DHT22;24609;48.316;16.174;2023-03-01T00:26:16;-3.60;99.90
38860;DHT22;24609;48.316;16.174;2023-03-01T00:28:42;-3.60;99.90
38860;DHT22;24609;48.316;16.174;2023-03-01T00:31:10;-3.60;99.90
38860;DHT22;24609;48.316;16.174;2023-03-01T00:33:36;-3.60;99.90
38860;DHT22;24609;48.316;16.174;2023-03-01T00:36:02;-3.60;99.90
38860;DHT22;24609;48.316;16.174;2023-03-01T00:38:29;-3.70;99.90
38860;DHT22;24609;48.316;16.174;2023-03-01T00:40:55;-3.80;99.90
38860;DHT22;24609;48.316;16.174;2023-03-01T00:43:21;-3.90;99.90
38860;DHT22;24609;48.316;16.174;2023-03-01T00:45:47;-4.00;99.90
38860;DHT22;24609;48.316;16.174;2023-03-01T00:48:12;-4.00;99.90
38860;DHT22;24609;48.316;16.174;2023-03-01T00:50:38;-4.00;99.90
38860;DHT22;24609;48.316;16.174;2023-03-01T00:53:04;-4.00;99.90
38860;DHT22;24609;48.316;16.174;2023-03-01T00:55:30;-4.00;99.90
38860;DHT22;24609;48.316;16.174;2023-03-01T00:57:56;-4.00;99.90
38860;DHT22;24609;48.316;16.174;2023-03-01T01:00:22;-4.00;99.90
38860;DHT22;24609;48.316;16.174;2023-03-01T01:02:47;-4.00;99.90
38860;DHT22;24609;48.316;16.174;2023-03-01T01:05:13;-4.00;99.90
38860;DHT22;24609;48.316;16.174;2023-03-01T01:07:39;-4.10;99.90
38860;DHT22;24609;48.316;16.174;2023-03-01T01:10:05;-4.00;99.90
38860;DHT22;24609;48.316;16.174;2023-03-01T01:12:32;-4.00;99.90
38860;DHT22;24609;48.316;16.174;2023-03-01T01:14:57;-3.90;99.90
38860;DHT22;24609;48.316;16.174;2023-03-01T01:17:23;-3.90;99.90
38860;DHT22;24609;48.316;16.174;2023-03-01T01:19:49;-4.00;99.90
38860;DHT22;24609;48.316;16.174;2023-03-01T01:22:14;-3.90;99.90
38860;DHT22;24609;48.316;16.174;2023-03-01T01:24:40;-3.80;99.90
38860;DHT22;24609;48.316;16.174;2023-03-01T01:27:06;-3.80;99.90
38860;DHT22;24609;48.316;16.174;2023-03-01T01:29:32;-3.80;99.90
38860;DHT22;24609;48.316;16.174;2023-03-01T01:31:58;-3.90;99.90
38860;DHT22;24609;48.316;16.174;2023-03-01T01:34:24;-4.00;99.90
38860;DHT22;24609;48.316;16.174;2023-03-01T01:36:51;-4.00;99.90
38860;DHT22;24609;48.316;16.174;2023-03-01T01:39:19;-3.90;99.90
38860;DHT22;24609;48.316;16.174;2023-03-01T01:41:45;-3.90;99.90
38860;DHT22;24609;48.316;16.174;2023-03-01T01:44:22;-3.90;99.90
38860;DHT22;24609;48.316;16.174;2023-03-01T01:47:03;-3.90;99.90
38860;DHT22;24609;48.316;16.174;2023-03-01T01:49:36;-3.90;99.90
38860;DHT22;24609;48.316;16.174;2023-03-01T01:52:24;-4.00;99.90
38860;DHT22;24609;48.316;16.174;2023-03-01T01:55:02;-4.00;99.90
38860;DHT22;24609;48.316;16.174;2023-03-01T01:57:37;-4.00;99.90
38860;DHT22;24609;48.316;16.174;2023-03-01T02:00:08;-3.90;99.90
38860;DHT22;24609;48.316;16.174;2023-03-01T02:02:35;-3.80;99.90
38860;DHT22;24609;48.316;16.174;2023-03-01T02:08:11;-3.70;99.90
38860;DHT22;24609;48.316;16.174;2023-03-01T02:10:37;-3.70;99.90
38860;DHT22;24609;48.316;16.174;2023-03-01T02:13:03;-3.70;99.90
38860;DHT22;24609;48.316;16.174;2023-03-01T02:15:34;-3.80;99.90
38860;DHT22;24609;48.316;16.174;2023-03-01T02:18:01;-3.80;99.90
38860;DHT22;24609;48.316;16.174;2023-03-01T02:20:59;-3.70;99.90
38860;DHT22;24609;48.316;16.174;2023-03-01T02:23:29;-3.60;99.90
38860;DHT22;24609;48.316;16.174;2023-03-01T02:30:53;-3.20;99.90
38860;DHT22;24609;48.316;16.174;2023-03-01T02:33:39;-3.10;99.90
38860;DHT22;24609;48.316;16.174;2023-03-01T02:36:14;-2.90;99.90
38860;DHT22;24609;48.316;16.174;2023-03-01T02:38:42;-2.80;99.90
38860;DHT22;24609;48.316;16.174;2023-03-01T02:41:08;-2.70;99.90
38860;DHT22;24609;48.316;16.174;2023-03-01T02:43:37;-2.60;99.90
38860;DHT22;24609;48.316;16.174;2023-03-01T02:46:12;-2.50;99.90
38860;DHT22;24609;48.316;16.174;2023-03-01T02:48:46;-2.40;99.90
38860;DHT22;24609;48.316;16.174;2023-03-01T02:51:33;-2.30;99.90
38860;DHT22;24609;48.316;16.174;2023-03-01T02:56:48;-2.20;99.90
38860;DHT22;24609;48.316;16.174;2023-03-01T02:59:18;-2.20;99.90
38860;DHT22;24609;48.316;16.174;2023-03-01T03:01:44;-2.10;99.90
38860;DHT22;24609;48.316;16.174;2023-03-01T03:04:15;-1.90;99.90
38860;DHT22;24609;48.316;16.174;2023-03-01T03:06:45;-1.90;99.90
38860;DHT22;24609;48.316;16.174;2023-03-01T03:09:12;-1.80;99.90
38860;DHT22;24609;48.316;16.174;2023-03-01T03:11:38;-1.70;99.90
38860;DHT22;24609;48.316;16.174;2023-03-01T03:14:07;-1.70;99.90
38860;DHT22;24609;48.316;16.174;2023-03-01T03:16:46;-1.60;99.90
38860;DHT22;24609;48.316;16.174;2023-03-01T03:19:12;-1.60;99.90
38860;DHT22;24609;48.316;16.174;2023-03-01T03:21:38;-1.60;99.90
38860;DHT22;24609;48.316;16.174;2023-03-01T03:24:04;-1.60;99.90
38860;DHT22;24609;48.316;16.174;2023-03-01T03:26:31;-1.70;99.90
38860;DHT22;24609;48.316;16.174;2023-03-01T03:28:57;-1.70;99.90
38860;DHT22;24609;48.316;16.174;2023-03-01T03:31:23;-1.60;99.90
38860;DHT22;24609;48.316;16.174;2023-03-01T03:33:48;-1.60;99.90
38860;DHT22;24609;48.316;16.174;2023-03-01T03:36:20;-1.60;99.90
38860;DHT22;24609;48.316;16.174;2023-03-01T03:38:46;-1.60;99.90
38860;DHT22;24609;48.316;16.174;2023-03-01T03:41:12;-1.50;99.90
38860;DHT22;24609;48.316;16.174;2023-03-01T03:43:39;-1.50;99.90
38860;DHT22;24609;48.316;16.174;2023-03-01T03:46:06;-1.40;99.90
38860;DHT22;24609;48.316;16.174;2023-03-01T03:48:34;-1.40;99.90
38860;DHT22;24609;48.316;16.174;2023-03-01T03:51:00;-1.20;99.90
38860;DHT22;24609;48.316;16.174;2023-03-01T03:53:27;-1.20;99.90
38860;DHT22;24609;48.316;16.174;2023-03-01T03:55:54;-1.10;99.90
38860;DHT22;24609;48.316;16.174;2023-03-01T03:58:23;-1.10;99.90
38860;DHT22;24609;48.316;16.174;2023-03-01T04:00:51;-1.10;99.90
38860;DHT22;24609;48.316;16.174;2023-03-01T04:03:18;-1.10;99.90
38860;DHT22;24609;48.316;16.174;2023-03-01T04:05:44;-1.10;99.90
38860;DHT22;24609;48.316;16.174;2023-03-01T04:08:11;-1.10;99.90
38860;DHT22;24609;48.316;16.174;2023-03-01T04:10:42;-1.20;99.90
38860;DHT22;24609;48.316;16.174;2023-03-01T04:13:11;-1.20;99.90
38860;DHT22;24609;48.316;16.174;2023-03-01T04:15:37;-1.10;99.90
38860;DHT22;24609;48.316;16.174;2023-03-01T04:18:03;-1.20;99.90
38860;DHT22;24609;48.316;16.174;2023-03-01T04:20:32;-1.20;99.90
38860;DHT22;24609;48.316;16.174;2023-03-01T04:23:04;-1.20;99.90
38860;DHT22;24609;48.316;16.174;2023-03-01T04:25:47;-1.20;99.90
38860;DHT22;24609;48.316;16.174;2023-03-01T04:28:22;-1.20;99.90
38860;DHT22;24609;48.316;16.174;2023-03-01T04:30:53;-1.20;99.90
38860;DHT22;24609;48.316;16.174;2023-03-01T04:33:19;-1.10;99.90
38860;DHT22;24609;48.316;16.174;2023-03-01T04:35:45;-1.10;99.90
38860;DHT22;24609;48.316;16.174;2023-03-01T04:38:11;-1.10;99.90
38860;DHT22;24609;48.316;16.174;2023-03-01T04:40:37;-1.20;99.90
38860;DHT22;24609;48.316;16.174;2023-03-01T04:43:04;-1.20;99.90
38860;DHT22;24609;48.316;16.174;2023-03-01T04:45:31;-1.10;99.90
38860;DHT22;24609;48.316;16.174;2023-03-01T04:47:57;-1.10;99.90
38860;DHT22;24609;48.316;16.174;2023-03-01T04:50:24;-1.00;99.90
38860;DHT22;24609;48.316;16.174;2023-03-01T04:52:51;-0.90;99.90
38860;DHT22;24609;48.316;16.174;2023-03-01T04:55:17;-0.90;99.90
38860;DHT22;24609;48.316;16.174;2023-03-01T04:57:43;-0.80;99.90
38860;DHT22;24609;48.316;16.174;2023-03-01T05:00:12;-0.80;99.90
38860;DHT22;24609;48.316;16.174;2023-03-01T05:02:53;-0.80;99.90
38860;DHT22;24609;48.316;16.174;2023-03-01T05:05:21;-0.80;99.90
38860;DHT22;24609;48.316;16.174;2023-03-01T05:07:51;-0.80;99.90
38860;DHT22;24609;48.316;16.174;2023-03-01T05:10:17;-0.80;99.90
38860;DHT22;24609;48.316;16.174;2023-03-01T05:12:42;-0.80;99.90
38860;DHT22;24609;48.316;16.174;2023-03-01T05:15:08;-0.80;99.90
38860;DHT22;24609;48.316;16.174;2023-03-01T05:17:34;-0.80;99.90
38860;DHT22;24609;48.316;16.174;2023-03-01T05:20:00;-0.70;99.90
38860;DHT22;24609;48.316;16.174;2023-03-01T05:22:26;-0.60;99.90
38860;DHT22;24609;48.316;16.174;2023-03-01T05:24:52;-0.60;99.90
38860;DHT22;24609;48.316;16.174;2023-03-01T05:27:19;-0.60;99.90
38860;DHT22;24609;48.316;16.174;2023-03-01T05:29:48;-0.50;99.90
38860;DHT22;24609;48.316;16.174;2023-03-01T05:32:14;-0.50;99.90
38860;DHT22;24609;48.316;16.174;2023-03-01T05:34:41;-0.50;99.90
38860;DHT22;24609;48.316;16.174;2023-03-01T05:37:07;-0.40;99.90
38860;DHT22;24609;48.316;16.174;2023-03-01T05:39:33;-0.40;99.90
38860;DHT22;24609;48.316;16.174;2023-03-01T05:42:00;-0.40;99.90
38860;DHT22;24609;48.316;16.174;2023-03-01T05:44:29;-0.40;99.90
38860;DHT22;24609;48.316;16.174;2023-03-01T05:46:55;-0.40;99.90
38860;DHT22;24609;48.316;16.174;2023-03-01T05:49:22;-0.40;99.90
38860;DHT22;24609;48.316;16.174;2023-03-01T05:51:52;-0.40;99.90
38860;DHT22;24609;48.316;16.174;2023-03-01T05:54:19;-0.40;99.90
38860;DHT22;24609;48.316;16.174;2023-03-01T05:56:45;-0.40;99.90
38860;DHT22;24609;48.316;16.174;2023-03-01T05:59:11;-0.30;99.90
38860;DHT22;24609;48.316;16.174;2023-03-01T06:01:37;-0.30;99.90
38860;DHT22;24609;48.316;16.174;2023-03-01T06:04:03;-0.10;99.90
38860;DHT22;24609;48.316;16.174;2023-03-01T06:06:29;-0.20;99.90
38860;DHT22;24609;48.316;16.174;2023-03-01T06:08:58;-0.20;99.90
38860;DHT22;24609;48.316;16.174;2023-03-01T06:11:24;-0.10;99.90
38860;DHT22;24609;48.316;16.174;2023-03-01T06:13:50;0.10;99.90
38860;DHT22;24609;48.316;16.174;2023-03-01T06:16:16;0.20;99.90
38860;DHT22;24609;48.316;16.174;2023-03-01T06:18:41;0.30;99.90
38860;DHT22;24609;48.316;16.174;2023-03-01T06:21:08;0.30;99.90
38860;DHT22;24609;48.316;16.174;2023-03-01T06:23:34;0.40;99.90
38860;DHT22;24609;48.316;16.174;2023-03-01T06:26:00;0.40;99.90
38860;DHT22;24609;48.316;16.174;2023-03-01T06:28:25;0.40;99.90
38860;DHT22;24609;48.316;16.174;2023-03-01T06:30:51;0.40;99.90
38860;DHT22;24609;48.316;16.174;2023-03-01T06:33:18;0.50;99.90
38860;DHT22;24609;48.316;16.174;2023-03-01T06:35:54;0.40;99.90
38860;DHT22;24609;48.316;16.174;2023-03-01T06:38:23;0.40;99.90
38860;DHT22;24609;48.316;16.174;2023-03-01T06:40:53;0.40;99.90
38860;DHT22;24609;48.316;16.174;2023-03-01T06:43:20;0.50;99.90
38860;DHT22;24609;48.316;16.174;2023-03-01T06:45:45;0.70;99.90
38860;DHT22;24609;48.316;16.174;2023-03-01T06:48:11;0.80;99.90
38860;DHT22;24609;48.316;16.174;2023-03-01T06:50:37;1.00;99.90
38860;DHT22;24609;48.316;16.174;2023-03-01T06:53:03;1.10;99.90
38860;DHT22;24609;48.316;16.174;2023-03-01T06:55:29;1.30;99.90
38860;DHT22;24609;48.316;16.174;2023-03-01T06:57:56;1.30;99.90
38860;DHT22;24609;48.316;16.174;2023-03-01T07:00:23;1.40;99.90
38860;DHT22;24609;48.316;16.174;2023-03-01T07:02:49;1.50;99.90
38860;DHT22;24609;48.316;16.174;2023-03-01T07:05:14;1.50;99.90
38860;DHT22;24609;48.316;16.174;2023-03-01T07:07:40;1.60;99.90
38860;DHT22;24609;48.316;16.174;2023-03-01T07:10:06;1.60;99.90
38860;DHT22;24609;48.316;16.174;2023-03-01T07:12:32;1.70;99.90
38860;DHT22;24609;48.316;16.174;2023-03-01T07:14:58;1.80;99.90
38860;DHT22;24609;48.316;16.174;2023-03-01T07:17:24;1.80;99.90
38860;DHT22;24609;48.316;16.174;2023-03-01T07:19:50;1.70;99.90
38860;DHT22;24609;48.316;16.174;2023-03-01T07:22:15;1.80;99.90
38860;DHT22;24609;48.316;16.174;2023-03-01T07:24:41;1.80;99.90
38860;DHT22;24609;48.316;16.174;2023-03-01T07:27:07;1.90;99.90
38860;DHT22;24609;48.316;16.174;2023-03-01T07:29:33;2.10;99.90
38860;DHT22;24609;48.316;16.174;2023-03-01T07:31:58;2.30;99.90
38860;DHT22;24609;48.316;16.174;2023-03-01T07:34:24;2.20;99.90
38860;DHT22;24609;48.316;16.174;2023-03-01T07:36:50;2.10;99.90
38860;DHT22;24609;48.316;16.174;2023-03-01T07:39:16;2.40;99.90
38860;DHT22;24609;48.316;16.174;2023-03-01T07:41:41;2.30;99.90
38860;DHT22;24609;48.316;16.174;2023-03-01T07:44:07;2.10;99.90
38860;DHT22;24609;48.316;16.174;2023-03-01T07:46:33;2.30;99.90
38860;DHT22;24609;48.316;16.174;2023-03-01T07:48:58;2.50;99.90
38860;DHT22;24609;48.316;16.174;2023-03-01T07:51:24;2.40;99.90
38860;DHT22;24609;48.316;16.174;2023-03-01T07:53:50;2.50;99.90
38860;DHT22;24609;48.316;16.174;2023-03-01T07:56:16;2.60;99.90
38860;DHT22;24609;48.316;16.174;2023-03-01T07:58:44;2.70;99.90
38860;DHT22;24609;48.316;16.174;2023-03-01T08:01:13;2.60;99.90
38860;DHT22;24609;48.316;16.174;2023-03-01T08:03:39;2.90;99.90
38860;DHT22;24609;48.316;16.174;2023-03-01T08:06:07;2.70;99.90
38860;DHT22;24609;48.316;16.174;2023-03-01T08:08:33;3.00;99.90
38860;DHT22;24609;48.316;16.174;2023-03-01T08:11:00;3.40;99.90
38860;DHT22;24609;48.316;16.174;2023-03-01T08:13:27;3.90;99.90
38860;DHT22;24609;48.316;16.174;2023-03-01T08:15:53;4.40;99.90
38860;DHT22;24609;48.316;16.174;2023-03-01T08:18:20;4.60;99.90
38860;DHT22;24609;48.316;16.174;2023-03-01T08:20:46;4.60;99.90
38860;DHT22;24609;48.316;16.174;2023-03-01T08:23:12;5.00;99.90
38860;DHT22;24609;48.316;16.174;2023-03-01T08:25:38;5.30;99.90
38860;DHT22;24609;48.316;16.174;2023-03-01T08:28:05;5.70;99.90
38860;DHT22;24609;48.316;16.174;2023-03-01T08:30:31;6.00;99.90
38860;DHT22;24609;48.316;16.174;2023-03-01T08:32:57;6.00;99.90
38860;DHT22;24609;48.316;16.174;2023-03-01T08:35:22;5.90;99.90
38860;DHT22;24609;48.316;16.174;2023-03-01T08:37:48;6.30;99.90
38860;DHT22;24609;48.316;16.174;2023-03-01T08:40:14;6.40;99.90
38860;DHT22;24609;48.316;16.174;2023-03-01T08:42:43;5.90;99.90
38860;DHT22;24609;48.316;16.174;2023-03-01T08:45:09;5.80;99.90
38860;DHT22;24609;48.316;16.174;2023-03-01T08:47:35;5.80;99.90
38860;DHT22;24609;48.316;16.174;2023-03-01T08:50:02;5.30;99.90
38860;DHT22;24609;48.316;16.174;2023-03-01T08:52:28;5.30;99.90
38860;DHT22;24609;48.316;16.174;2023-03-01T08:54:55;6.00;99.90
38860;DHT22;24609;48.316;16.174;2023-03-01T08:57:21;5.50;99.90
38860;DHT22;24609;48.316;16.174;2023-03-01T08:59:47;5.60;99.90
38860;DHT22;24609;48.316;16.174;2023-03-01T09:02:15;6.10;99.90
38860;DHT22;24609;48.316;16.174;2023-03-01T09:04:42;6.60;99.90
38860;DHT22;24609;48.316;16.174;2023-03-01T09:07:08;7.10;99.90
38860;DHT22;24609;48.316;16.174;2023-03-01T09:09:34;7.60;99.90
38860;DHT22;24609;48.316;16.174;2023-03-01T09:12:00;7.70;99.90
38860;DHT22;24609;48.316;16.174;2023-03-01T09:14:26;8.10;99.90
38860;DHT22;24609;48.316;16.174;2023-03-01T09:16:51;8.40;99.90
38860;DHT22;24609;48.316;16.174;2023-03-01T09:19:17;9.60;99.90
38860;DHT22;24609;48.316;16.174;2023-03-01T09:21:43;11.40;98.20
38860;DHT22;24609;48.316;16.174;2023-03-01T09:24:22;13.80;91.70
38860;DHT22;24609;48.316;16.174;2023-03-01T09:26:49;14.20;79.00
38860;DHT22;24609;48.316;16.174;2023-03-01T09:29:16;12.80;79.90
38860;DHT22;24609;48.316;16.174;2023-03-01T09:31:42;12.20;82.40
38860;DHT22;24609;48.316;16.174;2023-03-01T09:34:08;14.40;74.40
38860;DHT22;24609;48.316;16.174;2023-03-01T09:36:34;15.90;69.40
38860;DHT22;24609;48.316;16.174;2023-03-01T09:39:00;15.50;65.20
38860;DHT22;24609;48.316;16.174;2023-03-01T09:42:05;14.90;65.70
38860;DHT22;24609;48.316;16.174;2023-03-01T09:44:47;16.30;61.00
38860;DHT22;24609;48.316;16.174;2023-03-01T09:47:22;16.80;58.50
38860;DHT22;24609;48.316;16.174;2023-03-01T09:52:39;15.90;55.40
38860;DHT22;24609;48.316;16.174;2023-03-01T09:55:14;13.50;62.40
38860;DHT22;24609;48.316;16.174;2023-03-01T09:58:26;12.40;67.60
38860;DHT22;24609;48.316;16.174;2023-03-01T10:00:54;12.10;67.70
38860;DHT22;24609;48.316;16.174;2023-03-01T10:06:20;11.30;69.50
38860;DHT22;24609;48.316;16.174;2023-03-01T10:09:14;10.50;73.30
38860;DHT22;24609;48.316;16.174;2023-03-01T10:11:48;9.90;75.40
38860;DHT22;24609;48.316;16.174;2023-03-01T10:17:37;8.80;80.90
38860;DHT22;24609;48.316;16.174;2023-03-01T10:22:41;8.90;80.60
38860;DHT22;24609;48.316;16.174;2023-03-01T10:25:13;9.80;81.10
38860;DHT22;24609;48.316;16.174;2023-03-01T10:27:54;9.70;80.80
38860;DHT22;24609;48.316;16.174;2023-03-01T10:30:34;9.50;79.30
38860;DHT22;24609;48.316;16.174;2023-03-01T10:33:00;9.60;81.10
38860;DHT22;24609;48.316;16.174;2023-03-01T10:35:29;9.00;81.90
38860;DHT22;24609;48.316;16.174;2023-03-01T10:38:09;9.10;85.00
38860;DHT22;24609;48.316;16.174;2023-03-01T10:40:36;9.40;81.70
38860;DHT22;24609;48.316;16.174;2023-03-01T10:43:12;9.60;80.00
38860;DHT22;24609;48.316;16.174;2023-03-01T10:45:39;9.30;80.10
38860;DHT22;24609;48.316;16.174;2023-03-01T10:48:15;8.90;80.10
38860;DHT22;24609;48.316;16.174;2023-03-01T10:50:46;8.90;83.70
38860;DHT22;24609;48.316;16.174;2023-03-01T10:53:28;9.30;81.50
38860;DHT22;24609;48.316;16.174;2023-03-01T10:56:08;9.40;80.60
38860;DHT22;24609;48.316;16.174;2023-03-01T10:58:36;9.50;80.40
38860;DHT22;24609;48.316;16.174;2023-03-01T11:03:36;10.10;79.10
38860;DHT22;24609;48.316;16.174;2023-03-01T11:08:43;11.10;74.90
38860;DHT22;24609;48.316;16.174;2023-03-01T11:13:35;11.30;72.20
38860;DHT22;24609;48.316;16.174;2023-03-01T11:16:10;11.60;72.50
38860;DHT22;24609;48.316;16.174;2023-03-01T11:18:37;11.00;74.20
38860;DHT22;24609;48.316;16.174;2023-03-01T11:21:03;11.10;74.00
38860;DHT22;24609;48.316;16.174;2023-03-01T11:23:30;10.90;72.80
38860;DHT22;24609;48.316;16.174;2023-03-01T11:26:02;11.00;75.00
38860;DHT22;24609;48.316;16.174;2023-03-01T11:28:29;11.00;74.40
38860;DHT22;24609;48.316;16.174;2023-03-01T11:31:05;10.50;73.90
38860;DHT22;24609;48.316;16.174;2023-03-01T11:33:37;10.50;75.40
38860;DHT22;24609;48.316;16.174;2023-03-01T11:36:30;10.50;76.50
38860;DHT22;24609;48.316;16.174;2023-03-01T11:38:57;10.10;76.10
38860;DHT22;24609;48.316;16.174;2023-03-01T11:41:31;10.10;78.00
38860;DHT22;24609;48.316;16.174;2023-03-01T11:44:05;9.80;76.90
38860;DHT22;24609;48.316;16.174;2023-03-01T11:57:32;9.30;80.90
38860;DHT22;24609;48.316;16.174;2023-03-01T12:06:05;8.50;83.30
38860;DHT22;24609;48.316;16.174;2023-03-01T12:26:09;8.60;86.30
38860;DHT22;24609;48.316;16.174;2023-03-01T12:40:28;10.40;82.80
38860;DHT22;24609;48.316;16.174;2023-03-01T12:45:45;11.80;75.60
38860;DHT22;24609;48.316;16.174;2023-03-01T12:51:05;9.90;80.20
38860;DHT22;24609;48.316;16.174;2023-03-01T12:53:51;11.60;74.30
38860;DHT22;24609;48.316;16.174;2023-03-01T12:56:22;12.10;73.10
38860;DHT22;24609;48.316;16.174;2023-03-01T13:02:23;11.50;75.00
38860;DHT22;24609;48.316;16.174;2023-03-01T13:05:02;11.20;75.50
38860;DHT22;24609;48.316;16.174;2023-03-01T13:07:55;11.00;77.20
38860;DHT22;24609;48.316;16.174;2023-03-01T13:10:43;11.00;79.70
38860;DHT22;24609;48.316;16.174;2023-03-01T13:13:20;10.90;77.80
38860;DHT22;24609;48.316;16.174;2023-03-01T13:15:46;10.80;76.80
38860;DHT22;24609;48.316;16.174;2023-03-01T13:20:48;11.20;78.60
38860;DHT22;24609;48.316;16.174;2023-03-01T13:31:00;10.50;83.50
38860;DHT22;24609;48.316;16.174;2023-03-01T13:35:53;9.90;82.20
38860;DHT22;24609;48.316;16.174;2023-03-01T13:38:46;9.80;84.20
38860;DHT22;24609;48.316;16.174;2023-03-01T13:41:24;9.90;82.70
38860;DHT22;24609;48.316;16.174;2023-03-01T13:46:57;9.20;85.70
38860;DHT22;24609;48.316;16.174;2023-03-01T13:49:47;8.90;88.00
38860;DHT22;24609;48.316;16.174;2023-03-01T13:52:45;8.80;88.40
38860;DHT22;24609;48.316;16.174;2023-03-01T13:55:23;8.70;90.10
38860;DHT22;24609;48.316;16.174;2023-03-01T13:57:56;8.30;90.40
38860;DHT22;24609;48.316;16.174;2023-03-01T14:00:35;8.30;91.40
38860;DHT22;24609;48.316;16.174;2023-03-01T14:05:34;8.30;91.20
38860;DHT22;24609;48.316;16.174;2023-03-01T14:08:04;8.30;91.40
38860;DHT22;24609;48.316;16.174;2023-03-01T14:10:45;8.10;91.70
38860;DHT22;24609;48.316;16.174;2023-03-01T14:13:39;8.00;92.60
38860;DHT22;24609;48.316;16.174;2023-03-01T14:19:00;8.00;92.60
38860;DHT22;24609;48.316;16.174;2023-03-01T14:21:29;8.00;93.10
38860;DHT22;24609;48.316;16.174;2023-03-01T14:23:57;8.00;93.50
38860;DHT22;24609;48.316;16.174;2023-03-01T14:26:23;8.00;93.50
38860;DHT22;24609;48.316;16.174;2023-03-01T14:28:50;8.00;93.60
38860;DHT22;24609;48.316;16.174;2023-03-01T14:31:35;7.90;93.90
38860;DHT22;24609;48.316;16.174;2023-03-01T14:34:02;7.90;94.30
38860;DHT22;24609;48.316;16.174;2023-03-01T14:36:30;7.90;94.20
38860;DHT22;24609;48.316;16.174;2023-03-01T14:38:56;8.00;94.80
38860;DHT22;24609;48.316;16.174;2023-03-01T14:41:35;8.00;94.80
38860;DHT22;24609;48.316;16.174;2023-03-01T14:44:05;7.90;94.90
38860;DHT22;24609;48.316;16.174;2023-03-01T14:46:35;7.90;95.30
38860;DHT22;24609;48.316;16.174;2023-03-01T14:49:23;7.80;95.30
38860;DHT22;24609;48.316;16.174;2023-03-01T14:51:58;7.80;95.60
38860;DHT22;24609;48.316;16.174;2023-03-01T14:57:01;7.70;95.90
38860;DHT22;24609;48.316;16.174;2023-03-01T14:59:27;7.70;96.10
38860;DHT22;24609;48.316;16.174;2023-03-01T15:01:56;7.70;96.20
38860;DHT22;24609;48.316;16.174;2023-03-01T15:04:23;7.70;96.20
38860;DHT22;24609;48.316;16.174;2023-03-01T15:06:54;7.60;96.50
38860;DHT22;24609;48.316;16.174;2023-03-01T15:09:21;7.60;96.40
38860;DHT22;24609;48.316;16.174;2023-03-01T15:11:47;7.60;97.30
38860;DHT22;24609;48.316;16.174;2023-03-01T15:14:42;7.60;97.30
38860;DHT22;24609;48.316;16.174;2023-03-01T15:17:34;7.60;96.60
38860;DHT22;24609;48.316;16.174;2023-03-01T15:20:03;7.60;97.10
38860;DHT22;24609;48.316;16.174;2023-03-01T15:22:29;7.50;97.10
38860;DHT22;24609;48.316;16.174;2023-03-01T15:24:55;7.40;96.90
38860;DHT22;24609;48.316;16.174;2023-03-01T15:27:25;7.30;97.40
38860;DHT22;24609;48.316;16.174;2023-03-01T15:29:56;7.30;97.70
38860;DHT22;24609;48.316;16.174;2023-03-01T15:34:51;7.20;98.70
38860;DHT22;24609;48.316;16.174;2023-03-01T15:42:45;7.20;99.30
38860;DHT22;24609;48.316;16.174;2023-03-01T15:45:23;7.10;99.40
38860;DHT22;24609;48.316;16.174;2023-03-01T15:47:52;7.10;99.30
38860;DHT22;24609;48.316;16.174;2023-03-01T15:50:22;7.10;99.30
38860;DHT22;24609;48.316;16.174;2023-03-01T15:52:48;7.10;99.70
38860;DHT22;24609;48.316;16.174;2023-03-01T15:55:20;7.00;99.90
38860;DHT22;24609;48.316;16.174;2023-03-01T15:57:47;7.00;99.90
38860;DHT22;24609;48.316;16.174;2023-03-01T16:00:14;7.00;99.90
38860;DHT22;24609;48.316;16.174;2023-03-01T16:02:41;7.10;99.90
38860;DHT22;24609;48.316;16.174;2023-03-01T16:05:19;7.10;99.90
38860;DHT22;24609;48.316;16.174;2023-03-01T16:07:45;7.20;99.90
38860;DHT22;24609;48.316;16.174;2023-03-01T16:10:10;7.20;99.90
38860;DHT22;24609;48.316;16.174;2023-03-01T16:12:36;7.20;99.90
38860;DHT22;24609;48.316;16.174;2023-03-01T16:15:02;7.20;99.90
38860;DHT22;24609;48.316;16.174;2023-03-01T16:17:27;7.20;99.90
38860;DHT22;24609;48.316;16.174;2023-03-01T16:19:53;7.10;99.90
38860;DHT22;24609;48.316;16.174;2023-03-01T16:22:19;7.10;99.90
38860;DHT22;24609;48.316;16.174;2023-03-01T16:24:50;7.10;99.90
38860;DHT22;24609;48.316;16.174;2023-03-01T16:27:16;7.00;99.90
38860;DHT22;24609;48.316;16.174;2023-03-01T16:29:42;6.90;99.90
38860;DHT22;24609;48.316;16.174;2023-03-01T16:32:07;6.90;99.90
38860;DHT22;24609;48.316;16.174;2023-03-01T16:34:33;6.80;99.90
38860;DHT22;24609;48.316;16.174;2023-03-01T16:36:58;6.70;99.90
38860;DHT22;24609;48.316;16.174;2023-03-01T16:39:24;6.70;99.90
38860;DHT22;24609;48.316;16.174;2023-03-01T16:41:50;6.70;99.90
38860;DHT22;24609;48.316;16.174;2023-03-01T16:44:15;6.70;99.90
38860;DHT22;24609;48.316;16.174;2023-03-01T16:46:41;6.60;99.90
38860;DHT22;24609;48.316;16.174;2023-03-01T16:49:08;6.60;99.90
38860;DHT22;24609;48.316;16.174;2023-03-01T16:51:35;6.60;99.90
38860;DHT22;24609;48.316;16.174;2023-03-01T16:54:01;6.50;99.90
38860;DHT22;24609;48.316;16.174;2023-03-01T16:56:27;6.40;99.90
38860;DHT22;24609;48.316;16.174;2023-03-01T16:58:54;6.40;99.90
38860;DHT22;24609;48.316;16.174;2023-03-01T17:01:20;6.30;99.90
38860;DHT22;24609;48.316;16.174;2023-03-01T17:03:49;6.20;99.90
38860;DHT22;24609;48.316;16.174;2023-03-01T17:06:18;6.10;99.90
38860;DHT22;24609;48.316;16.174;2023-03-01T17:08:46;6.10;99.90
38860;DHT22;24609;48.316;16.174;2023-03-01T17:11:15;6.00;99.90
38860;DHT22;24609;48.316;16.174;2023-03-01T17:13:42;5.90;99.90
38860;DHT22;24609;48.316;16.174;2023-03-01T17:16:10;5.80;99.90
38860;DHT22;24609;48.316;16.174;2023-03-01T17:18:36;5.80;99.90
38860;DHT22;24609;48.316;16.174;2023-03-01T17:21:04;5.80;99.90
38860;DHT22;24609;48.316;16.174;2023-03-01T17:23:31;5.70;99.90
38860;DHT22;24609;48.316;16.174;2023-03-01T17:25:57;5.60;99.90
38860;DHT22;24609;48.316;16.174;2023-03-01T17:28:25;5.30;99.90
38860;DHT22;24609;48.316;16.174;2023-03-01T17:30:51;5.10;99.90
38860;DHT22;24609;48.316;16.174;2023-03-01T17:33:18;4.90;99.90